sensor_id;sensor_type;location;lat;lon;timestamp;P1;durP1;ratioP1;P2;durP2;ratioP2
60098;SDS011;62818;49.394;8.686;2022-10-04T00:00:22;9.57;;;6.07;;
60098;SDS011;62818;49.394;8.686;2022-10-04T00:02:50;10.20;;;4.85;;
60098;SDS011;62818;49.394;8.686;2022-10-04T00:04:16;8.93;;;4.95;;
60098;SDS011;62818;49.394;8.686;2022-10-04T00:05:23;10.63;;;5.10;;
60098;SDS011;62818;49.394;8.686;2022-10-04T00:06:28;8.55;;;5.05;;
60098;SDS011;62818;49.394;8.686;2022-10-04T00:07:30;12.38;;;5.45;;
60098;SDS011;62818;49.394;8.686;2022-10-04T00:08:56;11.43;;;5.40;;
60098;SDS011;62818;49.394;8.686;2022-10-04T00:10:23;10.93;;;4.95;;
60098;SDS011;62818;49.394;8.686;2022-10-04T00:12:46;9.35;;;5.03;;
60098;SDS011;62818;49.394;8.686;2022-10-04T00:13:53;11.80;;;4.85;;
60098;SDS011;62818;49.394;8.686;2022-10-04T00:15:03;14.20;;;5.20;;
60098;SDS011;62818;49.394;8.686;2022-10-04T00:16:26;12.55;;;4.63;;
60098;SDS011;62818;49.394;8.686;2022-10-04T00:17:39;9.63;;;4.97;;
60098;SDS011;62818;49.394;8.686;2022-10-04T00:18:41;8.18;;;5.00;;
60098;SDS011;62818;49.394;8.686;2022-10-04T00:19:50;13.90;;;5.22;;
60098;SDS011;62818;49.394;8.686;2022-10-04T00:24:25;14.02;;;5.43;;
60098;SDS011;62818;49.394;8.686;2022-10-04T00:25:32;12.77;;;4.75;;
60098;SDS011;62818;49.394;8.686;2022-10-04T00:27:39;10.25;;;5.70;;
60098;SDS011;62818;49.394;8.686;2022-10-04T00:29:33;10.98;;;5.72;;
60098;SDS011;62818;49.394;8.686;2022-10-04T00:30:38;12.57;;;5.15;;
60098;SDS011;62818;49.394;8.686;2022-10-04T00:32:08;11.07;;;5.03;;
60098;SDS011;62818;49.394;8.686;2022-10-04T00:33:11;9.40;;;5.15;;
60098;SDS011;62818;49.394;8.686;2022-10-04T00:34:44;9.80;;;5.00;;
60098;SDS011;62818;49.394;8.686;2022-10-04T00:35:51;11.52;;;6.07;;
60098;SDS011;62818;49.394;8.686;2022-10-04T00:36:54;10.83;;;5.33;;
60098;SDS011;62818;49.394;8.686;2022-10-04T00:39:14;15.38;;;5.82;;
60098;SDS011;62818;49.394;8.686;2022-10-04T00:40:25;12.00;;;5.28;;
60098;SDS011;62818;49.394;8.686;2022-10-04T00:43:54;13.35;;;6.32;;
60098;SDS011;62818;49.394;8.686;2022-10-04T00:45:06;13.20;;;7.07;;
60098;SDS011;62818;49.394;8.686;2022-10-04T00:46:30;12.75;;;6.10;;
60098;SDS011;62818;49.394;8.686;2022-10-04T00:48:57;14.90;;;6.13;;
60098;SDS011;62818;49.394;8.686;2022-10-04T00:52:52;16.80;;;6.13;;
60098;SDS011;62818;49.394;8.686;2022-10-04T00:55:05;14.77;;;6.00;;
60098;SDS011;62818;49.394;8.686;2022-10-04T00:56:10;19.25;;;7.03;;
60098;SDS011;62818;49.394;8.686;2022-10-04T00:57:48;8.60;;;6.63;;
60098;SDS011;62818;49.394;8.686;2022-10-04T01:00:03;13.63;;;6.80;;
60098;SDS011;62818;49.394;8.686;2022-10-04T01:01:11;10.55;;;5.32;;
60098;SDS011;62818;49.394;8.686;2022-10-04T01:03:19;11.65;;;6.35;;
60098;SDS011;62818;49.394;8.686;2022-10-04T01:04:39;13.20;;;6.47;;
60098;SDS011;62818;49.394;8.686;2022-10-04T01:06:09;12.32;;;5.88;;
60098;SDS011;62818;49.394;8.686;2022-10-04T01:07:13;12.32;;;5.85;;
60098;SDS011;62818;49.394;8.686;2022-10-04T01:08:29;12.55;;;5.65;;
60098;SDS011;62818;49.394;8.686;2022-10-04T01:09:37;11.90;;;5.35;;
60098;SDS011;62818;49.394;8.686;2022-10-04T01:12:36;12.52;;;5.38;;
60098;SDS011;62818;49.394;8.686;2022-10-04T01:13:49;11.43;;;5.45;;
60098;SDS011;62818;49.394;8.686;2022-10-04T01:15:05;18.77;;;5.63;;
60098;SDS011;62818;49.394;8.686;2022-10-04T01:16:17;13.88;;;6.47;;
60098;SDS011;62818;49.394;8.686;2022-10-04T01:17:32;11.15;;;5.70;;
60098;SDS011;62818;49.394;8.686;2022-10-04T01:18:35;8.80;;;5.45;;
60098;SDS011;62818;49.394;8.686;2022-10-04T01:19:46;8.90;;;4.97;;
60098;SDS011;62818;49.394;8.686;2022-10-04T01:20:53;12.82;;;6.15;;
60098;SDS011;62818;49.394;8.686;2022-10-04T01:23:07;12.13;;;5.60;;
60098;SDS011;62818;49.394;8.686;2022-10-04T01:24:36;11.77;;;5.75;;
60098;SDS011;62818;49.394;8.686;2022-10-04T01:25:49;12.10;;;6.03;;
60098;SDS011;62818;49.394;8.686;2022-10-04T01:26:52;10.98;;;5.38;;
60098;SDS011;62818;49.394;8.686;2022-10-04T01:27:56;11.57;;;6.13;;
60098;SDS011;62818;49.394;8.686;2022-10-04T01:30:05;12.90;;;6.18;;
60098;SDS011;62818;49.394;8.686;2022-10-04T01:31:13;16.05;;;5.68;;
60098;SDS011;62818;49.394;8.686;2022-10-04T01:32:18;17.95;;;7.10;;
60098;SDS011;62818;49.394;8.686;2022-10-04T01:33:19;28.10;;;7.47;;
60098;SDS011;62818;49.394;8.686;2022-10-04T01:34:20;13.80;;;6.60;;
60098;SDS011;62818;49.394;8.686;2022-10-04T01:35:26;13.10;;;5.78;;
60098;SDS011;62818;49.394;8.686;2022-10-04T01:36:30;22.65;;;6.95;;
60098;SDS011;62818;49.394;8.686;2022-10-04T01:37:37;12.32;;;6.68;;
60098;SDS011;62818;49.394;8.686;2022-10-04T01:38:38;10.13;;;5.63;;
60098;SDS011;62818;49.394;8.686;2022-10-04T01:39:39;15.10;;;6.10;;
60098;SDS011;62818;49.394;8.686;2022-10-04T01:40:45;15.85;;;6.32;;
60098;SDS011;62818;49.394;8.686;2022-10-04T01:42:10;13.45;;;5.55;;
60098;SDS011;62818;49.394;8.686;2022-10-04T01:43:27;7.85;;;5.28;;
60098;SDS011;62818;49.394;8.686;2022-10-04T01:46:48;17.70;;;6.22;;
60098;SDS011;62818;49.394;8.686;2022-10-04T01:49:02;10.60;;;5.88;;
60098;SDS011;62818;49.394;8.686;2022-10-04T01:50:15;12.15;;;5.80;;
60098;SDS011;62818;49.394;8.686;2022-10-04T01:51:35;13.88;;;6.00;;
60098;SDS011;62818;49.394;8.686;2022-10-04T01:52:50;11.70;;;6.10;;
60098;SDS011;62818;49.394;8.686;2022-10-04T01:54:09;11.57;;;5.57;;
60098;SDS011;62818;49.394;8.686;2022-10-04T01:55:19;10.60;;;6.22;;
60098;SDS011;62818;49.394;8.686;2022-10-04T01:56:29;14.98;;;5.57;;
60098;SDS011;62818;49.394;8.686;2022-10-04T01:57:41;13.43;;;5.50;;
60098;SDS011;62818;49.394;8.686;2022-10-04T01:58:58;12.50;;;5.45;;
60098;SDS011;62818;49.394;8.686;2022-10-04T02:00:15;12.35;;;5.15;;
60098;SDS011;62818;49.394;8.686;2022-10-04T02:01:31;14.10;;;5.35;;
60098;SDS011;62818;49.394;8.686;2022-10-04T02:04:04;11.80;;;4.80;;
60098;SDS011;62818;49.394;8.686;2022-10-04T02:05:17;18.17;;;5.13;;
60098;SDS011;62818;49.394;8.686;2022-10-04T02:06:36;17.80;;;5.80;;
60098;SDS011;62818;49.394;8.686;2022-10-04T02:07:43;12.10;;;5.20;;
60098;SDS011;62818;49.394;8.686;2022-10-04T02:08:50;10.63;;;4.85;;
60098;SDS011;62818;49.394;8.686;2022-10-04T02:09:56;17.52;;;5.47;;
60098;SDS011;62818;49.394;8.686;2022-10-04T02:11:04;12.32;;;4.90;;
60098;SDS011;62818;49.394;8.686;2022-10-04T02:12:05;11.95;;;5.13;;
60098;SDS011;62818;49.394;8.686;2022-10-04T02:13:12;9.52;;;4.80;;
60098;SDS011;62818;49.394;8.686;2022-10-04T02:14:21;9.75;;;4.20;;
60098;SDS011;62818;49.394;8.686;2022-10-04T02:15:31;11.15;;;4.97;;
60098;SDS011;62818;49.394;8.686;2022-10-04T02:16:38;7.57;;;4.22;;
60098;SDS011;62818;49.394;8.686;2022-10-04T02:17:40;15.30;;;6.87;;
60098;SDS011;62818;49.394;8.686;2022-10-04T02:18:45;9.50;;;5.45;;
60098;SDS011;62818;49.394;8.686;2022-10-04T02:19:51;12.00;;;4.45;;
60098;SDS011;62818;49.394;8.686;2022-10-04T02:20:53;18.17;;;6.18;;
60098;SDS011;62818;49.394;8.686;2022-10-04T02:21:57;14.38;;;5.50;;
60098;SDS011;62818;49.394;8.686;2022-10-04T02:23:04;10.93;;;5.25;;
60098;SDS011;62818;49.394;8.686;2022-10-04T02:24:06;12.48;;;5.40;;
60098;SDS011;62818;49.394;8.686;2022-10-04T02:25:12;10.88;;;5.32;;
60098;SDS011;62818;49.394;8.686;2022-10-04T02:26:17;13.48;;;4.88;;
60098;SDS011;62818;49.394;8.686;2022-10-04T02:27:24;8.85;;;4.43;;
60098;SDS011;62818;49.394;8.686;2022-10-04T02:28:31;11.10;;;4.80;;
60098;SDS011;62818;49.394;8.686;2022-10-04T02:29:37;11.25;;;5.00;;
60098;SDS011;62818;49.394;8.686;2022-10-04T02:30:40;7.13;;;4.40;;
60098;SDS011;62818;49.394;8.686;2022-10-04T02:32:06;10.02;;;5.30;;
60098;SDS011;62818;49.394;8.686;2022-10-04T02:33:31;7.40;;;4.25;;
60098;SDS011;62818;49.394;8.686;2022-10-04T02:34:32;18.67;;;5.10;;
60098;SDS011;62818;49.394;8.686;2022-10-04T02:35:44;7.32;;;4.95;;
60098;SDS011;62818;49.394;8.686;2022-10-04T02:36:47;10.82;;;4.53;;
60098;SDS011;62818;49.394;8.686;2022-10-04T02:37:53;7.60;;;5.07;;
60098;SDS011;62818;49.394;8.686;2022-10-04T02:39:04;7.85;;;4.70;;
60098;SDS011;62818;49.394;8.686;2022-10-04T02:40:15;9.00;;;4.93;;
60098;SDS011;62818;49.394;8.686;2022-10-04T02:41:27;9.33;;;4.90;;
60098;SDS011;62818;49.394;8.686;2022-10-04T02:43:03;12.85;;;5.30;;
60098;SDS011;62818;49.394;8.686;2022-10-04T02:44:20;10.35;;;5.50;;
60098;SDS011;62818;49.394;8.686;2022-10-04T02:45:23;14.38;;;4.78;;
60098;SDS011;62818;49.394;8.686;2022-10-04T02:50:08;10.55;;;5.32;;
60098;SDS011;62818;49.394;8.686;2022-10-04T02:51:44;8.40;;;5.20;;
60098;SDS011;62818;49.394;8.686;2022-10-04T02:53:29;10.98;;;5.15;;
60098;SDS011;62818;49.394;8.686;2022-10-04T02:56:11;10.85;;;5.38;;
60098;SDS011;62818;49.394;8.686;2022-10-04T02:57:17;12.50;;;5.57;;
60098;SDS011;62818;49.394;8.686;2022-10-04T02:58:23;8.93;;;5.25;;
60098;SDS011;62818;49.394;8.686;2022-10-04T02:59:26;15.15;;;5.22;;
60098;SDS011;62818;49.394;8.686;2022-10-04T03:00:30;10.85;;;5.97;;
60098;SDS011;62818;49.394;8.686;2022-10-04T03:04:24;12.10;;;6.10;;
60098;SDS011;62818;49.394;8.686;2022-10-04T03:05:30;13.18;;;5.10;;
60098;SDS011;62818;49.394;8.686;2022-10-04T03:06:31;12.38;;;5.20;;
60098;SDS011;62818;49.394;8.686;2022-10-04T03:07:33;12.52;;;5.13;;
60098;SDS011;62818;49.394;8.686;2022-10-04T03:09:42;7.82;;;4.97;;
60098;SDS011;62818;49.394;8.686;2022-10-04T03:10:48;8.05;;;4.70;;
60098;SDS011;62818;49.394;8.686;2022-10-04T03:11:51;11.13;;;5.32;;
60098;SDS011;62818;49.394;8.686;2022-10-04T03:12:55;11.10;;;5.20;;
60098;SDS011;62818;49.394;8.686;2022-10-04T03:13:57;9.32;;;5.88;;
60098;SDS011;62818;49.394;8.686;2022-10-04T03:15:00;10.90;;;5.32;;
60098;SDS011;62818;49.394;8.686;2022-10-04T03:16:03;15.90;;;5.70;;
60098;SDS011;62818;49.394;8.686;2022-10-04T03:17:05;9.52;;;5.30;;
60098;SDS011;62818;49.394;8.686;2022-10-04T03:18:07;12.40;;;5.28;;
60098;SDS011;62818;49.394;8.686;2022-10-04T03:19:14;12.43;;;5.47;;
60098;SDS011;62818;49.394;8.686;2022-10-04T03:20:18;10.43;;;5.22;;
60098;SDS011;62818;49.394;8.686;2022-10-04T03:21:20;11.65;;;5.32;;
60098;SDS011;62818;49.394;8.686;2022-10-04T03:22:27;12.70;;;6.28;;
60098;SDS011;62818;49.394;8.686;2022-10-04T03:23:28;8.38;;;5.38;;
60098;SDS011;62818;49.394;8.686;2022-10-04T03:24:36;10.18;;;5.28;;
60098;SDS011;62818;49.394;8.686;2022-10-04T03:25:50;9.55;;;5.10;;
60098;SDS011;62818;49.394;8.686;2022-10-04T03:27:00;15.55;;;9.63;;
60098;SDS011;62818;49.394;8.686;2022-10-04T03:28:12;8.63;;;5.00;;
60098;SDS011;62818;49.394;8.686;2022-10-04T03:29:13;8.13;;;5.32;;
60098;SDS011;62818;49.394;8.686;2022-10-04T03:30:21;9.88;;;5.55;;
60098;SDS011;62818;49.394;8.686;2022-10-04T03:31:22;11.00;;;4.78;;
60098;SDS011;62818;49.394;8.686;2022-10-04T03:32:26;11.43;;;4.75;;
60098;SDS011;62818;49.394;8.686;2022-10-04T03:33:31;9.98;;;4.80;;
60098;SDS011;62818;49.394;8.686;2022-10-04T03:34:37;12.15;;;4.70;;
60098;SDS011;62818;49.394;8.686;2022-10-04T03:35:48;8.18;;;4.63;;
60098;SDS011;62818;49.394;8.686;2022-10-04T03:36:53;15.23;;;4.70;;
60098;SDS011;62818;49.394;8.686;2022-10-04T03:38:03;13.52;;;5.28;;
60098;SDS011;62818;49.394;8.686;2022-10-04T03:39:10;8.88;;;5.00;;
60098;SDS011;62818;49.394;8.686;2022-10-04T03:40:16;9.75;;;5.13;;
60098;SDS011;62818;49.394;8.686;2022-10-04T03:41:30;23.08;;;5.47;;
60098;SDS011;62818;49.394;8.686;2022-10-04T03:42:35;13.27;;;5.30;;
60098;SDS011;62818;49.394;8.686;2022-10-04T03:43:44;10.48;;;4.93;;
60098;SDS011;62818;49.394;8.686;2022-10-04T03:44:59;9.18;;;4.85;;
60098;SDS011;62818;49.394;8.686;2022-10-04T03:46:06;10.68;;;5.25;;
60098;SDS011;62818;49.394;8.686;2022-10-04T03:47:11;8.73;;;4.90;;
60098;SDS011;62818;49.394;8.686;2022-10-04T03:48:25;10.98;;;5.30;;
60098;SDS011;62818;49.394;8.686;2022-10-04T03:49:38;7.55;;;5.22;;
60098;SDS011;62818;49.394;8.686;2022-10-04T03:50:44;15.30;;;5.32;;
60098;SDS011;62818;49.394;8.686;2022-10-04T03:51:48;7.28;;;4.57;;
60098;SDS011;62818;49.394;8.686;2022-10-04T03:52:51;10.60;;;4.82;;
60098;SDS011;62818;49.394;8.686;2022-10-04T03:53:57;7.93;;;4.55;;
60098;SDS011;62818;49.394;8.686;2022-10-04T03:55:02;10.63;;;4.72;;
60098;SDS011;62818;49.394;8.686;2022-10-04T03:56:19;10.07;;;4.45;;
60098;SDS011;62818;49.394;8.686;2022-10-04T03:57:32;9.05;;;4.57;;
60098;SDS011;62818;49.394;8.686;2022-10-04T03:58:36;10.73;;;5.07;;
60098;SDS011;62818;49.394;8.686;2022-10-04T03:59:37;11.80;;;5.43;;
60098;SDS011;62818;49.394;8.686;2022-10-04T04:00:39;10.57;;;4.68;;
60098;SDS011;62818;49.394;8.686;2022-10-04T04:02:04;7.22;;;5.03;;
60098;SDS011;62818;49.394;8.686;2022-10-04T04:03:53;8.93;;;4.90;;
60098;SDS011;62818;49.394;8.686;2022-10-04T04:05:41;8.45;;;4.78;;
60098;SDS011;62818;49.394;8.686;2022-10-04T04:08:16;11.45;;;4.85;;
60098;SDS011;62818;49.394;8.686;2022-10-04T04:09:44;11.93;;;4.70;;
60098;SDS011;62818;49.394;8.686;2022-10-04T04:10:55;9.32;;;5.22;;
60098;SDS011;62818;49.394;8.686;2022-10-04T04:12:05;9.30;;;4.85;;
60098;SDS011;62818;49.394;8.686;2022-10-04T04:15:00;10.07;;;5.40;;
60098;SDS011;62818;49.394;8.686;2022-10-04T04:16:02;9.43;;;5.00;;
60098;SDS011;62818;49.394;8.686;2022-10-04T04:17:18;10.38;;;4.93;;
60098;SDS011;62818;49.394;8.686;2022-10-04T04:18:39;8.40;;;4.80;;
60098;SDS011;62818;49.394;8.686;2022-10-04T04:19:43;10.65;;;5.43;;
60098;SDS011;62818;49.394;8.686;2022-10-04T04:20:45;13.15;;;5.63;;
60098;SDS011;62818;49.394;8.686;2022-10-04T04:21:50;9.43;;;4.85;;
60098;SDS011;62818;49.394;8.686;2022-10-04T04:22:57;8.05;;;4.72;;
60098;SDS011;62818;49.394;8.686;2022-10-04T04:24:12;14.95;;;4.65;;
60098;SDS011;62818;49.394;8.686;2022-10-04T04:25:24;6.53;;;4.90;;
60098;SDS011;62818;49.394;8.686;2022-10-04T04:27:47;12.38;;;5.28;;
60098;SDS011;62818;49.394;8.686;2022-10-04T04:30:06;7.32;;;4.50;;
60098;SDS011;62818;49.394;8.686;2022-10-04T04:31:15;9.27;;;5.93;;
60098;SDS011;62818;49.394;8.686;2022-10-04T04:32:25;10.20;;;4.47;;
60098;SDS011;62818;49.394;8.686;2022-10-04T04:34:23;11.00;;;4.47;;
60098;SDS011;62818;49.394;8.686;2022-10-04T04:35:29;7.63;;;4.47;;
60098;SDS011;62818;49.394;8.686;2022-10-04T04:36:39;13.45;;;4.72;;
60098;SDS011;62818;49.394;8.686;2022-10-04T04:37:40;9.70;;;4.70;;
60098;SDS011;62818;49.394;8.686;2022-10-04T04:38:44;8.88;;;4.78;;
60098;SDS011;62818;49.394;8.686;2022-10-04T04:40:23;11.32;;;5.13;;
60098;SDS011;62818;49.394;8.686;2022-10-04T04:41:29;7.05;;;4.25;;
60098;SDS011;62818;49.394;8.686;2022-10-04T04:42:34;7.93;;;4.65;;
60098;SDS011;62818;49.394;8.686;2022-10-04T04:43:41;9.65;;;5.90;;
60098;SDS011;62818;49.394;8.686;2022-10-04T04:44:45;9.20;;;4.90;;
60098;SDS011;62818;49.394;8.686;2022-10-04T04:45:50;10.73;;;4.93;;
60098;SDS011;62818;49.394;8.686;2022-10-04T04:48:01;8.38;;;4.63;;
60098;SDS011;62818;49.394;8.686;2022-10-04T04:49:06;13.35;;;5.18;;
60098;SDS011;62818;49.394;8.686;2022-10-04T04:51:21;9.73;;;4.90;;
60098;SDS011;62818;49.394;8.686;2022-10-04T04:52:27;10.48;;;4.25;;
60098;SDS011;62818;49.394;8.686;2022-10-04T04:53:28;6.13;;;3.88;;
60098;SDS011;62818;49.394;8.686;2022-10-04T04:54:30;8.88;;;5.22;;
60098;SDS011;62818;49.394;8.686;2022-10-04T04:55:32;11.32;;;4.50;;
60098;SDS011;62818;49.394;8.686;2022-10-04T04:56:39;8.60;;;4.18;;
60098;SDS011;62818;49.394;8.686;2022-10-04T04:57:48;8.93;;;4.03;;
60098;SDS011;62818;49.394;8.686;2022-10-04T04:58:55;8.35;;;3.63;;
60098;SDS011;62818;49.394;8.686;2022-10-04T05:00:04;12.88;;;4.30;;
60098;SDS011;62818;49.394;8.686;2022-10-04T05:02:37;8.07;;;4.32;;
60098;SDS011;62818;49.394;8.686;2022-10-04T05:05:19;12.00;;;4.35;;
60098;SDS011;62818;49.394;8.686;2022-10-04T05:06:32;7.80;;;4.38;;
60098;SDS011;62818;49.394;8.686;2022-10-04T05:07:36;8.95;;;3.65;;
60098;SDS011;62818;49.394;8.686;2022-10-04T05:08:37;8.83;;;4.17;;
60098;SDS011;62818;49.394;8.686;2022-10-04T05:09:40;7.63;;;3.95;;
60098;SDS011;62818;49.394;8.686;2022-10-04T05:12:07;8.43;;;4.35;;
60098;SDS011;62818;49.394;8.686;2022-10-04T05:13:17;9.73;;;4.30;;
60098;SDS011;62818;49.394;8.686;2022-10-04T05:14:20;8.50;;;4.13;;
60098;SDS011;62818;49.394;8.686;2022-10-04T05:15:21;8.15;;;4.20;;
60098;SDS011;62818;49.394;8.686;2022-10-04T05:17:40;8.35;;;3.80;;
60098;SDS011;62818;49.394;8.686;2022-10-04T05:18:40;7.73;;;3.97;;
60098;SDS011;62818;49.394;8.686;2022-10-04T05:19:44;9.70;;;4.17;;
60098;SDS011;62818;49.394;8.686;2022-10-04T05:20:50;9.60;;;4.10;;
60098;SDS011;62818;49.394;8.686;2022-10-04T05:21:54;8.95;;;4.47;;
60098;SDS011;62818;49.394;8.686;2022-10-04T05:22:59;6.65;;;4.43;;
60098;SDS011;62818;49.394;8.686;2022-10-04T05:25:35;9.70;;;4.63;;
60098;SDS011;62818;49.394;8.686;2022-10-04T05:26:36;13.07;;;4.77;;
60098;SDS011;62818;49.394;8.686;2022-10-04T05:27:42;5.50;;;4.30;;
60098;SDS011;62818;49.394;8.686;2022-10-04T05:28:46;12.98;;;4.80;;
60098;SDS011;62818;49.394;8.686;2022-10-04T05:30:08;15.45;;;4.30;;
60098;SDS011;62818;49.394;8.686;2022-10-04T05:31:34;11.40;;;4.47;;
60098;SDS011;62818;49.394;8.686;2022-10-04T05:33:00;10.27;;;4.65;;
60098;SDS011;62818;49.394;8.686;2022-10-04T05:34:18;11.75;;;4.35;;
60098;SDS011;62818;49.394;8.686;2022-10-04T05:35:24;17.55;;;4.47;;
60098;SDS011;62818;49.394;8.686;2022-10-04T05:40:50;12.23;;;5.55;;
60098;SDS011;62818;49.394;8.686;2022-10-04T05:42:41;9.23;;;4.70;;
60098;SDS011;62818;49.394;8.686;2022-10-04T05:43:48;9.75;;;4.65;;
60098;SDS011;62818;49.394;8.686;2022-10-04T05:44:53;11.25;;;4.70;;
60098;SDS011;62818;49.394;8.686;2022-10-04T05:47:29;10.10;;;5.18;;
60098;SDS011;62818;49.394;8.686;2022-10-04T05:48:36;11.07;;;4.85;;
60098;SDS011;62818;49.394;8.686;2022-10-04T05:49:42;11.60;;;5.70;;
60098;SDS011;62818;49.394;8.686;2022-10-04T05:50:46;14.85;;;5.47;;
60098;SDS011;62818;49.394;8.686;2022-10-04T05:51:51;7.13;;;4.78;;
60098;SDS011;62818;49.394;8.686;2022-10-04T05:54:23;8.00;;;4.85;;
60098;SDS011;62818;49.394;8.686;2022-10-04T05:55:40;8.52;;;4.75;;
60098;SDS011;62818;49.394;8.686;2022-10-04T05:57:33;16.20;;;4.82;;
60098;SDS011;62818;49.394;8.686;2022-10-04T06:00:09;9.40;;;5.60;;
60098;SDS011;62818;49.394;8.686;2022-10-04T06:03:58;11.65;;;5.40;;
60098;SDS011;62818;49.394;8.686;2022-10-04T06:05:18;9.02;;;5.32;;
60098;SDS011;62818;49.394;8.686;2022-10-04T06:06:32;10.45;;;5.65;;
60098;SDS011;62818;49.394;8.686;2022-10-04T06:17:22;9.50;;;6.30;;
60098;SDS011;62818;49.394;8.686;2022-10-04T06:22:30;11.65;;;6.45;;
60098;SDS011;62818;49.394;8.686;2022-10-04T06:23:16;9.73;;;6.10;;
60098;SDS011;62818;49.394;8.686;2022-10-04T06:24:23;13.73;;;5.85;;
60098;SDS011;62818;49.394;8.686;2022-10-04T06:25:35;12.85;;;6.25;;
60098;SDS011;62818;49.394;8.686;2022-10-04T06:26:47;8.88;;;6.25;;
60098;SDS011;62818;49.394;8.686;2022-10-04T06:28:21;9.18;;;5.85;;
60098;SDS011;62818;49.394;8.686;2022-10-04T06:29:30;9.68;;;6.40;;
60098;SDS011;62818;49.394;8.686;2022-10-04T06:32:14;7.90;;;6.28;;
60098;SDS011;62818;49.394;8.686;2022-10-04T06:33:47;11.88;;;6.05;;
60098;SDS011;62818;49.394;8.686;2022-10-04T06:42:21;10.32;;;7.45;;
60098;SDS011;62818;49.394;8.686;2022-10-04T06:44:31;13.00;;;7.13;;
60098;SDS011;62818;49.394;8.686;2022-10-04T06:47:17;11.02;;;7.05;;
60098;SDS011;62818;49.394;8.686;2022-10-04T06:50:16;13.40;;;6.78;;
60098;SDS011;62818;49.394;8.686;2022-10-04T06:53:03;10.32;;;6.63;;
60098;SDS011;62818;49.394;8.686;2022-10-04T06:56:10;20.65;;;6.20;;
60098;SDS011;62818;49.394;8.686;2022-10-04T06:57:47;13.50;;;6.65;;
60098;SDS011;62818;49.394;8.686;2022-10-04T06:59:55;20.55;;;6.88;;
60098;SDS011;62818;49.394;8.686;2022-10-04T07:02:39;13.05;;;6.15;;
60098;SDS011;62818;49.394;8.686;2022-10-04T07:11:49;11.38;;;5.63;;
60098;SDS011;62818;49.394;8.686;2022-10-04T07:14:31;15.23;;;6.35;;
60098;SDS011;62818;49.394;8.686;2022-10-04T07:15:58;8.00;;;4.93;;
60098;SDS011;62818;49.394;8.686;2022-10-04T07:17:12;13.10;;;6.85;;
60098;SDS011;62818;49.394;8.686;2022-10-04T07:18:26;11.45;;;6.60;;
60098;SDS011;62818;49.394;8.686;2022-10-04T07:19:48;21.42;;;6.97;;
60098;SDS011;62818;49.394;8.686;2022-10-04T07:20:57;17.17;;;7.50;;
60098;SDS011;62818;49.394;8.686;2022-10-04T07:23:40;14.20;;;6.70;;
60098;SDS011;62818;49.394;8.686;2022-10-04T07:24:56;17.08;;;7.07;;
60098;SDS011;62818;49.394;8.686;2022-10-04T07:26:05;14.68;;;7.32;;
60098;SDS011;62818;49.394;8.686;2022-10-04T07:27:51;8.60;;;6.45;;
60098;SDS011;62818;49.394;8.686;2022-10-04T07:29:14;18.05;;;7.38;;
60098;SDS011;62818;49.394;8.686;2022-10-04T07:30:31;14.13;;;7.15;;
60098;SDS011;62818;49.394;8.686;2022-10-04T07:31:45;16.70;;;7.50;;
60098;SDS011;62818;49.394;8.686;2022-10-04T07:33:04;14.10;;;7.22;;
60098;SDS011;62818;49.394;8.686;2022-10-04T07:34:16;23.48;;;7.68;;
60098;SDS011;62818;49.394;8.686;2022-10-04T07:35:29;13.02;;;8.10;;
60098;SDS011;62818;49.394;8.686;2022-10-04T07:36:55;21.60;;;8.10;;
60098;SDS011;62818;49.394;8.686;2022-10-04T07:38:13;14.10;;;7.25;;
60098;SDS011;62818;49.394;8.686;2022-10-04T07:40:36;12.15;;;6.97;;
60098;SDS011;62818;49.394;8.686;2022-10-04T07:42:06;18.58;;;7.20;;
60098;SDS011;62818;49.394;8.686;2022-10-04T07:43:43;18.20;;;7.38;;
60098;SDS011;62818;49.394;8.686;2022-10-04T07:45:08;13.18;;;7.50;;
60098;SDS011;62818;49.394;8.686;2022-10-04T07:47:44;14.23;;;7.22;;
60098;SDS011;62818;49.394;8.686;2022-10-04T07:48:44;21.40;;;7.53;;
60098;SDS011;62818;49.394;8.686;2022-10-04T07:49:48;15.15;;;7.78;;
60098;SDS011;62818;49.394;8.686;2022-10-04T07:51:04;14.70;;;7.10;;
60098;SDS011;62818;49.394;8.686;2022-10-04T07:55:22;15.52;;;7.53;;
60098;SDS011;62818;49.394;8.686;2022-10-04T07:56:58;15.73;;;7.43;;
60098;SDS011;62818;49.394;8.686;2022-10-04T07:59:03;13.05;;;6.75;;
60098;SDS011;62818;49.394;8.686;2022-10-04T08:00:21;17.92;;;7.45;;
60098;SDS011;62818;49.394;8.686;2022-10-04T08:05:37;15.50;;;6.78;;
60098;SDS011;62818;49.394;8.686;2022-10-04T08:15:39;14.90;;;6.80;;
60098;SDS011;62818;49.394;8.686;2022-10-04T08:20:16;20.40;;;6.93;;
60098;SDS011;62818;49.394;8.686;2022-10-04T08:21:31;16.13;;;6.82;;
60098;SDS011;62818;49.394;8.686;2022-10-04T08:33:43;13.50;;;6.85;;
60098;SDS011;62818;49.394;8.686;2022-10-04T08:35:37;11.32;;;5.93;;
60098;SDS011;62818;49.394;8.686;2022-10-04T08:37:06;8.85;;;6.15;;
60098;SDS011;62818;49.394;8.686;2022-10-04T08:38:56;13.13;;;5.82;;
60098;SDS011;62818;49.394;8.686;2022-10-04T08:41:43;16.42;;;5.88;;
60098;SDS011;62818;49.394;8.686;2022-10-04T08:44:38;15.30;;;6.25;;
60098;SDS011;62818;49.394;8.686;2022-10-04T08:51:05;11.30;;;5.40;;
60098;SDS011;62818;49.394;8.686;2022-10-04T08:55:01;11.45;;;5.15;;
60098;SDS011;62818;49.394;8.686;2022-10-04T09:13:14;9.88;;;4.47;;
60098;SDS011;62818;49.394;8.686;2022-10-04T09:14:21;13.00;;;4.63;;
60098;SDS011;62818;49.394;8.686;2022-10-04T09:17:17;8.88;;;4.90;;
60098;SDS011;62818;49.394;8.686;2022-10-04T09:20:00;15.57;;;5.63;;
60098;SDS011;62818;49.394;8.686;2022-10-04T09:22:17;9.82;;;5.32;;
60098;SDS011;62818;49.394;8.686;2022-10-04T09:37:08;11.30;;;4.40;;
60098;SDS011;62818;49.394;8.686;2022-10-04T09:44:26;9.73;;;4.60;;
60098;SDS011;62818;49.394;8.686;2022-10-04T09:45:56;8.45;;;4.30;;
60098;SDS011;62818;49.394;8.686;2022-10-04T10:13:23;14.00;;;3.58;;
60098;SDS011;62818;49.394;8.686;2022-10-04T10:36:26;7.07;;;2.65;;
60098;SDS011;62818;49.394;8.686;2022-10-04T10:45:34;2.80;;;1.40;;
60098;SDS011;62818;49.394;8.686;2022-10-04T10:50:23;4.47;;;1.65;;
60098;SDS011;62818;49.394;8.686;2022-10-04T10:53:18;4.03;;;1.45;;
60098;SDS011;62818;49.394;8.686;2022-10-04T11:06:02;3.13;;;1.42;;
60098;SDS011;62818;49.394;8.686;2022-10-04T11:07:41;5.68;;;1.77;;
60098;SDS011;62818;49.394;8.686;2022-10-04T11:14:21;4.43;;;1.60;;
60098;SDS011;62818;49.394;8.686;2022-10-04T11:25:21;6.20;;;2.05;;
60098;SDS011;62818;49.394;8.686;2022-10-04T11:30:28;7.70;;;1.98;;
60098;SDS011;62818;49.394;8.686;2022-10-04T11:35:31;6.40;;;1.25;;
60098;SDS011;62818;49.394;8.686;2022-10-04T11:37:06;8.43;;;1.95;;
60098;SDS011;62818;49.394;8.686;2022-10-04T11:38:56;6.60;;;2.08;;
60098;SDS011;62818;49.394;8.686;2022-10-04T11:40:56;7.43;;;1.70;;
60098;SDS011;62818;49.394;8.686;2022-10-04T11:43:50;5.68;;;1.60;;
60098;SDS011;62818;49.394;8.686;2022-10-04T11:47:17;4.93;;;1.50;;
60098;SDS011;62818;49.394;8.686;2022-10-04T11:54:54;3.30;;;1.27;;
60098;SDS011;62818;49.394;8.686;2022-10-04T11:58:59;6.20;;;1.15;;
60098;SDS011;62818;49.394;8.686;2022-10-04T12:00:41;7.57;;;1.30;;
60098;SDS011;62818;49.394;8.686;2022-10-04T12:15:53;6.20;;;1.60;;
60098;SDS011;62818;49.394;8.686;2022-10-04T12:22:01;5.95;;;1.60;;
60098;SDS011;62818;49.394;8.686;2022-10-04T12:28:45;6.68;;;1.50;;
60098;SDS011;62818;49.394;8.686;2022-10-04T12:30:55;7.47;;;1.33;;
60098;SDS011;62818;49.394;8.686;2022-10-04T12:32:15;6.40;;;1.45;;
60098;SDS011;62818;49.394;8.686;2022-10-04T12:33:33;5.25;;;1.33;;
60098;SDS011;62818;49.394;8.686;2022-10-04T12:38:03;5.07;;;1.60;;
60098;SDS011;62818;49.394;8.686;2022-10-04T12:39:20;8.70;;;1.63;;
60098;SDS011;62818;49.394;8.686;2022-10-04T12:48:51;3.28;;;1.25;;